createdAt,value
2023-02-26T00:01:43.550Z,-1.15
2023-02-26T00:04:14.579Z,-1.15
2023-02-26T00:06:54.141Z,-1.16
2023-02-26T00:09:54.094Z,-1.15
2023-02-26T00:13:01.251Z,-1.13
2023-02-26T00:15:30.776Z,-1.10
2023-02-26T00:18:06.244Z,-1.07
2023-02-26T00:20:37.888Z,-1.09
2023-02-26T00:23:07.093Z,-1.04
2023-02-26T00:25:35.645Z,-1.02
2023-02-26T00:28:04.908Z,-1.00
2023-02-26T00:30:54.365Z,-0.97
2023-02-26T00:33:24.211Z,-0.96
2023-02-26T00:36:16.120Z,-0.97
2023-02-26T00:38:59.264Z,-0.98
2023-02-26T00:41:30.266Z,-1.00
2023-02-26T00:44:07.376Z,-1.02
2023-02-26T00:47:20.601Z,-1.02
2023-02-26T00:50:36.175Z,-1.02
2023-02-26T00:53:29.486Z,-1.03
2023-02-26T00:55:59.958Z,-1.02
2023-02-26T00:58:30.551Z,-1.03
2023-02-26T01:01:03.600Z,-1.00
2023-02-26T01:03:33.621Z,-0.98
2023-02-26T01:06:02.008Z,-0.96
2023-02-26T01:08:43.530Z,-0.95
2023-02-26T01:11:11.866Z,-0.95
2023-02-26T01:13:40.239Z,-0.97
2023-02-26T01:16:14.532Z,-1.03
2023-02-26T01:18:48.421Z,-1.07
2023-02-26T01:21:29.066Z,-1.09
2023-02-26T01:23:57.264Z,-1.12
2023-02-26T01:26:29.462Z,-1.13
2023-02-26T01:28:57.799Z,-1.12
2023-02-26T01:31:58.352Z,-1.12
2023-02-26T01:34:49.504Z,-1.11
2023-02-26T01:37:56.572Z,-1.09
2023-02-26T01:40:36.381Z,-1.07
2023-02-26T01:43:11.719Z,-1.07
2023-02-26T01:45:55.856Z,-1.09
2023-02-26T01:48:38.143Z,-1.14
2023-02-26T01:51:06.870Z,-1.16
2023-02-26T01:53:35.380Z,-1.19
2023-02-26T01:56:11.108Z,-1.21
2023-02-26T01:58:40.230Z,-1.24
2023-02-26T02:01:08.519Z,-1.25
2023-02-26T02:03:39.905Z,-1.26
2023-02-26T02:06:15.260Z,-1.26
2023-02-26T02:08:43.855Z,-1.25
2023-02-26T02:11:14.736Z,-1.26
2023-02-26T02:13:52.241Z,-1.25
2023-02-26T02:16:41.883Z,-1.22
2023-02-26T02:19:30.643Z,-1.17
2023-02-26T02:22:16.757Z,-1.11
2023-02-26T02:25:04.195Z,-1.10
2023-02-26T02:27:53.401Z,-1.10
2023-02-26T02:30:38.659Z,-1.07
2023-02-26T02:33:16.505Z,-1.03
2023-02-26T02:35:58.216Z,-1.01
2023-02-26T02:38:45.682Z,-0.97
2023-02-26T02:41:26.816Z,-0.96
2023-02-26T02:43:57.527Z,-0.98
2023-02-26T02:46:30.548Z,-0.99
2023-02-26T02:49:03.519Z,-0.97
2023-02-26T02:51:43.463Z,-0.96
2023-02-26T02:54:17.240Z,-0.95
2023-02-26T02:56:56.796Z,-0.94
2023-02-26T02:59:40.967Z,-0.93
2023-02-26T03:02:16.779Z,-0.92
2023-02-26T03:04:45.972Z,-0.93
2023-02-26T03:07:14.561Z,-0.95
2023-02-26T03:09:43.230Z,-0.95
2023-02-26T03:12:12.230Z,-0.95
2023-02-26T03:14:41.840Z,-0.95
2023-02-26T03:17:33.721Z,-0.93
2023-02-26T03:20:10.955Z,-0.93
2023-02-26T03:23:27.429Z,-0.92
2023-02-26T03:26:03.679Z,-0.95
2023-02-26T03:28:59.433Z,-0.98
2023-02-26T03:31:38.380Z,-0.97
2023-02-26T03:34:19.065Z,-0.98
2023-02-26T03:37:17.754Z,-0.97
2023-02-26T03:39:51.458Z,-0.99
2023-02-26T03:42:19.608Z,-1.00
2023-02-26T03:44:57.175Z,-1.01
2023-02-26T03:47:26.279Z,-1.00
2023-02-26T03:50:01.823Z,-0.99
2023-02-26T03:52:34.633Z,-0.97
2023-02-26T03:55:30.290Z,-0.93
2023-02-26T03:57:58.718Z,-0.91
2023-02-26T04:00:29.264Z,-0.89
2023-02-26T04:03:03.996Z,-0.89
2023-02-26T04:05:40.734Z,-0.89
2023-02-26T04:08:08.791Z,-0.88
2023-02-26T04:10:43.833Z,-0.86
2023-02-26T04:13:12.054Z,-0.84
2023-02-26T04:15:40.157Z,-0.83
2023-02-26T04:18:08.255Z,-0.82
2023-02-26T04:20:37.370Z,-0.82
2023-02-26T04:23:05.516Z,-0.83
2023-02-26T04:25:33.561Z,-0.85
2023-02-26T04:28:01.622Z,-0.84
2023-02-26T04:30:30.237Z,-0.83
2023-02-26T04:32:58.437Z,-0.82
2023-02-26T04:35:26.470Z,-0.82
2023-02-26T04:37:54.584Z,-0.82
2023-02-26T04:40:25.613Z,-0.83
2023-02-26T04:42:53.880Z,-0.88
2023-02-26T04:45:22.088Z,-0.91
2023-02-26T04:47:50.119Z,-0.94
2023-02-26T04:50:18.264Z,-0.95
2023-02-26T04:52:46.500Z,-0.97
2023-02-26T04:55:14.933Z,-0.97
2023-02-26T04:57:43.002Z,-0.99
2023-02-26T05:00:12.089Z,-1.00
2023-02-26T05:02:40.270Z,-1.02
2023-02-26T05:05:08.823Z,-1.03
2023-02-26T05:07:37.322Z,-1.02
2023-02-26T05:10:08.934Z,-1.02
2023-02-26T05:12:37.202Z,-1.02
2023-02-26T05:15:06.624Z,-1.02
2023-02-26T05:17:35.617Z,-1.02
2023-02-26T05:20:05.345Z,-1.02
2023-02-26T05:22:33.374Z,-1.01
2023-02-26T05:25:02.010Z,-0.98
2023-02-26T05:27:30.142Z,-0.95
2023-02-26T05:29:58.203Z,-0.92
2023-02-26T05:32:26.316Z,-0.91
2023-02-26T05:34:54.458Z,-0.91
2023-02-26T05:37:22.614Z,-0.91
2023-02-26T05:39:50.705Z,-0.91
2023-02-26T05:42:18.872Z,-0.90
2023-02-26T05:44:46.900Z,-0.88
2023-02-26T05:47:15.114Z,-0.88
2023-02-26T05:49:43.324Z,-0.88
2023-02-26T05:52:11.353Z,-0.88
2023-02-26T05:54:39.439Z,-0.91
2023-02-26T05:57:07.622Z,-0.95
2023-02-26T05:59:35.772Z,-0.96
2023-02-26T06:02:04.342Z,-0.98
2023-02-26T06:04:32.538Z,-0.98
2023-02-26T06:07:00.585Z,-0.97
2023-02-26T06:09:28.804Z,-0.97
2023-02-26T06:11:57.561Z,-0.98
2023-02-26T06:14:25.775Z,-1.01
2023-02-26T06:16:53.873Z,-1.03
2023-02-26T06:19:22.000Z,-1.07
2023-02-26T06:21:50.095Z,-1.10
2023-02-26T06:24:18.270Z,-1.10
2023-02-26T06:26:46.426Z,-1.11
2023-02-26T06:29:15.276Z,-1.14
2023-02-26T06:31:43.363Z,-1.20
2023-02-26T06:34:11.705Z,-1.27
2023-02-26T06:36:39.878Z,-1.33
2023-02-26T06:39:08.292Z,-1.36
2023-02-26T06:41:36.354Z,-1.39
2023-02-26T06:44:05.606Z,-1.40
2023-02-26T06:46:34.159Z,-1.37
2023-02-26T06:49:02.363Z,-1.34
2023-02-26T06:51:31.206Z,-1.27
2023-02-26T06:53:59.347Z,-1.15
2023-02-26T06:56:28.216Z,-1.05
2023-02-26T06:58:56.570Z,-0.96
2023-02-26T07:01:24.904Z,-0.91
2023-02-26T07:03:53.497Z,-0.88
2023-02-26T07:06:27.648Z,-0.85
2023-02-26T07:08:56.589Z,-0.82
2023-02-26T07:11:25.544Z,-0.81
2023-02-26T07:13:53.615Z,-0.80
2023-02-26T07:16:22.025Z,-0.77
2023-02-26T07:18:50.226Z,-0.73
2023-02-26T07:21:18.312Z,-0.70
2023-02-26T07:23:46.591Z,-0.67
2023-02-26T07:26:14.772Z,-0.63
2023-02-26T07:28:42.888Z,-0.58
2023-02-26T07:31:11.203Z,-0.56
2023-02-26T07:33:39.857Z,-0.56
2023-02-26T07:36:08.027Z,-0.59
2023-02-26T07:38:36.048Z,-0.60
2023-02-26T07:41:04.260Z,-0.59
2023-02-26T07:43:32.428Z,-0.56
2023-02-26T07:46:00.727Z,-0.53
2023-02-26T07:48:28.849Z,-0.49
2023-02-26T07:50:57.137Z,-0.45
2023-02-26T07:53:25.234Z,-0.42
2023-02-26T07:55:53.405Z,-0.39
2023-02-26T07:58:21.528Z,-0.38
2023-02-26T08:00:49.803Z,-0.37
2023-02-26T08:03:17.836Z,-0.37
2023-02-26T08:05:46.014Z,-0.36
2023-02-26T08:08:14.381Z,-0.34
2023-02-26T08:10:43.026Z,-0.32
2023-02-26T08:13:11.168Z,-0.30
2023-02-26T08:15:39.411Z,-0.29
2023-02-26T08:18:07.487Z,-0.29
2023-02-26T08:20:35.576Z,-0.30
2023-02-26T08:23:03.661Z,-0.30
2023-02-26T08:25:31.722Z,-0.28
2023-02-26T08:28:01.294Z,-0.25
2023-02-26T08:30:30.451Z,-0.23
2023-02-26T08:32:58.477Z,-0.21
2023-02-26T08:35:26.583Z,-0.20
2023-02-26T08:37:54.721Z,-0.19
2023-02-26T08:40:22.902Z,-0.18
2023-02-26T08:42:51.737Z,-0.16
2023-02-26T08:45:19.836Z,-0.11
2023-02-26T08:47:56.626Z,-0.07
2023-02-26T08:50:26.735Z,-0.05
2023-02-26T08:52:54.846Z,-0.04
2023-02-26T08:55:23.651Z,-0.05
2023-02-26T08:57:51.837Z,-0.03
2023-02-26T09:00:20.533Z,-0.01
2023-02-26T09:02:49.309Z,0.01
2023-02-26T09:05:17.898Z,0.03
2023-02-26T09:07:46.093Z,0.05
2023-02-26T09:10:14.661Z,0.06
2023-02-26T09:12:43.844Z,0.06
2023-02-26T09:15:14.482Z,0.04
2023-02-26T09:17:42.777Z,0.03
2023-02-26T09:20:12.201Z,0.03
2023-02-26T09:22:40.453Z,0.06
2023-02-26T09:25:08.982Z,0.08
2023-02-26T09:27:37.513Z,0.08
2023-02-26T09:30:06.813Z,0.08
2023-02-26T09:32:35.061Z,0.11
2023-02-26T09:35:05.538Z,0.13
2023-02-26T09:37:34.205Z,0.16
2023-02-26T09:40:03.621Z,0.18
2023-02-26T09:42:58.429Z,0.21
2023-02-26T09:45:42.886Z,0.25
2023-02-26T09:48:17.771Z,0.26
2023-02-26T09:50:55.803Z,0.29
2023-02-26T09:53:34.376Z,0.33
2023-02-26T09:56:07.476Z,0.39
2023-02-26T09:58:41.611Z,0.45
2023-02-26T10:01:09.671Z,0.50
2023-02-26T10:03:59.316Z,0.52
2023-02-26T10:06:27.821Z,0.53
2023-02-26T10:09:18.260Z,0.53
2023-02-26T10:11:55.910Z,0.54
2023-02-26T10:14:43.060Z,0.55
2023-02-26T10:17:34.468Z,0.51
2023-02-26T10:20:26.684Z,0.47
2023-02-26T10:23:07.748Z,0.46
2023-02-26T10:26:03.320Z,0.45
2023-02-26T10:28:48.580Z,0.51
2023-02-26T10:31:39.039Z,0.57
2023-02-26T10:34:25.219Z,0.63
2023-02-26T10:37:11.672Z,0.64
2023-02-26T10:40:09.301Z,0.64
2023-02-26T10:42:49.191Z,0.68
2023-02-26T10:45:35.495Z,0.72
2023-02-26T10:48:12.567Z,0.75
2023-02-26T10:50:49.675Z,0.74
2023-02-26T10:53:18.863Z,0.72
2023-02-26T10:55:59.845Z,0.77
2023-02-26T10:58:28.889Z,0.78
2023-02-26T11:00:57.616Z,0.74
2023-02-26T11:03:40.089Z,0.64
2023-02-26T11:06:10.435Z,0.58
2023-02-26T11:08:48.163Z,0.57
2023-02-26T11:11:41.049Z,0.54
2023-02-26T11:14:10.147Z,0.53
2023-02-26T11:16:55.633Z,0.54
2023-02-26T11:19:39.810Z,0.56
2023-02-26T11:22:11.814Z,0.59
2023-02-26T11:24:47.258Z,0.61
2023-02-26T11:27:38.150Z,0.65
2023-02-26T11:30:18.638Z,0.67
2023-02-26T11:32:52.602Z,0.67
2023-02-26T11:35:24.259Z,0.65
2023-02-26T11:37:58.741Z,0.65
2023-02-26T11:40:49.441Z,0.69
2023-02-26T11:43:21.216Z,0.75
2023-02-26T11:45:56.451Z,0.79
2023-02-26T11:48:41.010Z,0.81
2023-02-26T11:51:14.029Z,0.81
2023-02-26T11:53:55.054Z,0.76
2023-02-26T11:56:42.858Z,0.71
2023-02-26T11:59:20.325Z,0.70
2023-02-26T12:01:50.103Z,0.72
2023-02-26T12:04:21.443Z,0.73
2023-02-26T12:06:55.520Z,0.74
2023-02-26T12:09:26.492Z,0.76
2023-02-26T12:12:27.514Z,0.80
2023-02-26T12:15:24.343Z,0.88
2023-02-26T12:18:38.179Z,0.92
2023-02-26T12:22:10.492Z,0.87
2023-02-26T12:24:52.618Z,0.83
2023-02-26T12:27:45.804Z,0.77
2023-02-26T12:30:35.548Z,0.72
2023-02-26T12:33:25.539Z,0.72
2023-02-26T12:36:04.420Z,0.76
2023-02-26T12:39:00.816Z,0.78
2023-02-26T12:41:43.329Z,0.79
2023-02-26T12:44:16.627Z,0.79
2023-02-26T12:47:07.948Z,0.78
2023-02-26T12:50:07.703Z,0.78
2023-02-26T12:52:51.453Z,0.80
2023-02-26T12:55:45.116Z,0.80
2023-02-26T12:58:19.684Z,0.80
2023-02-26T13:01:00.105Z,0.80
2023-02-26T13:03:37.700Z,0.82
2023-02-26T13:06:45.940Z,0.82
2023-02-26T13:09:31.463Z,0.85
2023-02-26T13:12:03.183Z,0.86
2023-02-26T13:14:53.328Z,0.83
2023-02-26T13:17:21.395Z,0.83
2023-02-26T13:19:49.552Z,0.77
2023-02-26T13:22:20.743Z,0.73
2023-02-26T13:24:56.530Z,0.68
2023-02-26T13:27:34.470Z,0.64
2023-02-26T13:30:21.954Z,0.62
2023-02-26T13:32:54.552Z,0.61
2023-02-26T13:35:32.289Z,0.61
2023-02-26T13:38:07.712Z,0.60
2023-02-26T13:40:48.110Z,0.56
2023-02-26T13:43:35.218Z,0.55
2023-02-26T13:46:37.773Z,0.55
2023-02-26T13:49:23.137Z,0.57
2023-02-26T13:51:54.723Z,0.60
2023-02-26T13:54:22.739Z,0.59
2023-02-26T13:57:08.137Z,0.59
2023-02-26T13:59:42.199Z,0.59
2023-02-26T14:02:19.256Z,0.57
2023-02-26T14:04:53.919Z,0.55
2023-02-26T14:07:54.327Z,0.56
2023-02-26T14:11:10.861Z,0.57
2023-02-26T14:13:40.331Z,0.58
2023-02-26T14:16:28.070Z,0.61
2023-02-26T14:19:22.530Z,0.64
2023-02-26T14:22:23.836Z,0.66
2023-02-26T14:25:10.742Z,0.69
2023-02-26T14:27:43.896Z,0.71
2023-02-26T14:30:12.117Z,0.72
2023-02-26T14:32:50.144Z,0.71
2023-02-26T14:35:25.943Z,0.70
2023-02-26T14:38:03.290Z,0.69
2023-02-26T14:40:43.041Z,0.67
2023-02-26T14:43:41.410Z,0.65
2023-02-26T14:46:11.503Z,0.61
2023-02-26T14:48:39.895Z,0.56
2023-02-26T14:51:25.621Z,0.50
2023-02-26T14:54:29.268Z,0.46
2023-02-26T14:57:02.469Z,0.43
2023-02-26T14:59:47.449Z,0.42
2023-02-26T15:02:22.975Z,0.41
2023-02-26T15:05:09.837Z,0.41
2023-02-26T15:08:00.502Z,0.41
2023-02-26T15:10:45.058Z,0.40
2023-02-26T15:13:35.038Z,0.37
2023-02-26T15:16:12.359Z,0.33
2023-02-26T15:18:54.433Z,0.27
2023-02-26T15:22:00.770Z,0.24
2023-02-26T15:24:31.472Z,0.17
2023-02-26T15:27:03.067Z,0.14
2023-02-26T15:29:36.059Z,0.12
2023-02-26T15:32:27.166Z,0.13
2023-02-26T15:35:08.057Z,0.13
2023-02-26T15:37:36.588Z,0.15
2023-02-26T15:40:06.111Z,0.15
2023-02-26T15:42:39.814Z,0.15
2023-02-26T15:45:27.082Z,0.14
2023-02-26T15:48:03.241Z,0.10
2023-02-26T15:50:36.295Z,0.07
2023-02-26T15:53:06.137Z,0.04
2023-02-26T15:55:39.010Z,0.01
2023-02-26T15:58:08.338Z,-0.02
2023-02-26T16:00:37.274Z,-0.02
2023-02-26T16:03:05.432Z,-0.03
2023-02-26T16:05:33.682Z,-0.03
2023-02-26T16:08:02.008Z,-0.05
2023-02-26T16:10:40.753Z,-0.05
2023-02-26T16:13:16.507Z,-0.05
2023-02-26T16:15:45.129Z,-0.06
2023-02-26T16:18:22.430Z,-0.04
2023-02-26T16:20:57.860Z,-0.02
2023-02-26T16:23:35.611Z,-0.00
2023-02-26T16:26:07.274Z,0.00
2023-02-26T16:28:48.311Z,0.02
2023-02-26T16:31:23.175Z,0.05
2023-02-26T16:33:54.212Z,0.09
2023-02-26T16:36:26.367Z,0.13
2023-02-26T16:39:05.044Z,0.18
2023-02-26T16:41:37.351Z,0.21
2023-02-26T16:44:31.021Z,0.25
2023-02-26T16:47:01.236Z,0.27
2023-02-26T16:49:35.154Z,0.29
2023-02-26T16:52:05.100Z,0.31
2023-02-26T16:54:41.024Z,0.34
2023-02-26T16:57:20.040Z,0.36
2023-02-26T16:59:53.781Z,0.40
2023-02-26T17:02:25.160Z,0.44
2023-02-26T17:05:05.768Z,0.51
2023-02-26T17:07:38.106Z,0.56
2023-02-26T17:10:24.334Z,0.60
2023-02-26T17:12:53.880Z,0.63
2023-02-26T17:15:31.634Z,0.65
2023-02-26T17:18:00.082Z,0.67
2023-02-26T17:20:30.362Z,0.66
2023-02-26T17:23:40.903Z,0.68
2023-02-26T17:26:29.832Z,0.70
2023-02-26T17:29:23.269Z,0.74
2023-02-26T17:31:51.484Z,0.77
2023-02-26T17:34:21.414Z,0.78
2023-02-26T17:36:49.750Z,0.80
2023-02-26T17:39:18.013Z,0.79
2023-02-26T17:41:46.138Z,0.78
2023-02-26T17:44:14.187Z,0.76
2023-02-26T17:46:42.565Z,0.73
2023-02-26T17:49:12.747Z,0.67
2023-02-26T17:51:40.794Z,0.64
2023-02-26T17:54:09.825Z,0.61
2023-02-26T17:56:38.319Z,0.61
2023-02-26T17:59:07.300Z,0.62
2023-02-26T18:01:35.836Z,0.64
2023-02-26T18:04:04.076Z,0.65
2023-02-26T18:06:36.395Z,0.65
2023-02-26T18:09:06.063Z,0.63
2023-02-26T18:11:35.140Z,0.61
2023-02-26T18:14:03.469Z,0.60
2023-02-26T18:16:36.162Z,0.59
2023-02-26T18:19:05.962Z,0.58
2023-02-26T18:21:34.272Z,0.58
2023-02-26T18:24:02.524Z,0.61
2023-02-26T18:26:33.034Z,0.63
2023-02-26T18:29:01.120Z,0.67
2023-02-26T18:31:35.010Z,0.69
2023-02-26T18:34:05.097Z,0.68
2023-02-26T18:36:37.799Z,0.68
2023-02-26T18:39:15.535Z,0.69
2023-02-26T18:41:43.590Z,0.70
2023-02-26T18:44:11.978Z,0.69
2023-02-26T18:46:41.993Z,0.69
2023-02-26T18:49:19.359Z,0.71
2023-02-26T18:51:47.760Z,0.72
2023-02-26T18:54:16.066Z,0.74
2023-02-26T18:56:44.257Z,0.76
2023-02-26T18:59:12.522Z,0.76
2023-02-26T19:01:40.705Z,0.76
2023-02-26T19:04:08.817Z,0.76
2023-02-26T19:06:37.340Z,0.76
2023-02-26T19:09:05.978Z,0.75
2023-02-26T19:11:34.461Z,0.76
2023-02-26T19:14:02.697Z,0.78
2023-02-26T19:16:35.219Z,0.80
2023-02-26T19:19:05.450Z,0.80
2023-02-26T19:21:36.712Z,0.81
2023-02-26T19:24:05.677Z,0.82
2023-02-26T19:26:34.487Z,0.81
2023-02-26T19:29:04.996Z,0.80
2023-02-26T19:31:35.227Z,0.77
2023-02-26T19:34:04.464Z,0.77
2023-02-26T19:36:33.676Z,0.77
2023-02-26T19:39:05.155Z,0.78
2023-02-26T19:41:33.341Z,0.78
2023-02-26T19:44:01.583Z,0.77
2023-02-26T19:46:29.887Z,0.74
2023-02-26T19:48:58.163Z,0.72
2023-02-26T19:51:27.262Z,0.67
2023-02-26T19:53:55.688Z,0.64
2023-02-26T19:56:23.850Z,0.60
2023-02-26T19:58:52.009Z,0.58
2023-02-26T20:01:20.252Z,0.58
2023-02-26T20:03:49.151Z,0.56
2023-02-26T20:06:18.688Z,0.55
2023-02-26T20:08:47.198Z,0.53
2023-02-26T20:11:15.184Z,0.52
2023-02-26T20:13:43.372Z,0.48
2023-02-26T20:16:11.731Z,0.44
2023-02-26T20:18:40.426Z,0.39
2023-02-26T20:21:10.456Z,0.37
2023-02-26T20:23:39.415Z,0.37
2023-02-26T20:26:11.547Z,0.36
2023-02-26T20:28:40.668Z,0.36
2023-02-26T20:31:09.965Z,0.35
2023-02-26T20:33:39.553Z,0.34
2023-02-26T20:36:10.144Z,0.32
2023-02-26T20:38:38.380Z,0.31
2023-02-26T20:41:06.638Z,0.30
2023-02-26T20:43:34.955Z,0.30
2023-02-26T20:46:03.640Z,0.29
2023-02-26T20:48:31.999Z,0.28
2023-02-26T20:51:06.283Z,0.20
2023-02-26T20:53:35.757Z,0.07
2023-02-26T20:56:04.134Z,0.00
2023-02-26T20:58:32.543Z,-0.03
2023-02-26T21:01:00.624Z,-0.02
2023-02-26T21:03:28.737Z,-0.02
2023-02-26T21:05:57.044Z,0.00
2023-02-26T21:08:25.139Z,0.04
2023-02-26T21:10:53.624Z,0.09
2023-02-26T21:13:21.816Z,0.13
2023-02-26T21:15:50.377Z,0.18
2023-02-26T21:18:18.603Z,0.21
2023-02-26T21:20:49.928Z,0.24
2023-02-26T21:23:18.613Z,0.25
2023-02-26T21:25:46.813Z,0.25
2023-02-26T21:28:15.007Z,0.26
2023-02-26T21:30:43.146Z,0.27
2023-02-26T21:33:11.258Z,0.30
2023-02-26T21:35:40.112Z,0.31
2023-02-26T21:38:09.213Z,0.34
2023-02-26T21:40:37.747Z,0.34
2023-02-26T21:43:05.891Z,0.34
2023-02-26T21:45:36.271Z,0.34
2023-02-26T21:48:04.990Z,0.32
2023-02-26T21:50:33.656Z,0.30
2023-02-26T21:53:01.804Z,0.31
2023-02-26T21:55:30.029Z,0.31
2023-02-26T21:57:58.299Z,0.33
2023-02-26T22:00:26.447Z,0.33
2023-02-26T22:02:54.652Z,0.35
2023-02-26T22:05:22.765Z,0.35
2023-02-26T22:07:52.431Z,0.35
2023-02-26T22:10:20.796Z,0.31
2023-02-26T22:12:48.951Z,0.30
2023-02-26T22:15:17.146Z,0.30
2023-02-26T22:17:45.390Z,0.30
2023-02-26T22:20:14.277Z,0.33
2023-02-26T22:22:42.441Z,0.33
2023-02-26T22:25:12.114Z,0.31
2023-02-26T22:27:40.399Z,0.30
2023-02-26T22:30:09.575Z,0.28
2023-02-26T22:32:38.020Z,0.26
2023-02-26T22:35:06.750Z,0.23
2023-02-26T22:37:34.986Z,0.22
2023-02-26T22:40:04.262Z,0.22
2023-02-26T22:42:32.353Z,0.23
2023-02-26T22:45:00.442Z,0.22
2023-02-26T22:47:29.188Z,0.21
2023-02-26T22:49:57.645Z,0.19
2023-02-26T22:52:25.910Z,0.16
2023-02-26T22:54:54.045Z,0.11
2023-02-26T22:57:22.235Z,0.06
2023-02-26T22:59:50.404Z,0.02
2023-02-26T23:02:18.534Z,-0.01
2023-02-26T23:04:46.748Z,-0.03
2023-02-26T23:07:14.845Z,-0.04
2023-02-26T23:09:43.175Z,-0.05
2023-02-26T23:12:11.697Z,-0.08
2023-02-26T23:14:40.276Z,-0.11
2023-02-26T23:17:10.957Z,-0.14
2023-02-26T23:19:40.220Z,-0.18
2023-02-26T23:22:08.621Z,-0.23
2023-02-26T23:24:36.828Z,-0.27
2023-02-26T23:27:05.018Z,-0.31
2023-02-26T23:29:33.157Z,-0.33
2023-02-26T23:32:01.605Z,-0.35
2023-02-26T23:34:29.991Z,-0.35
2023-02-26T23:36:58.238Z,-0.35
2023-02-26T23:39:28.534Z,-0.35
2023-02-26T23:41:57.074Z,-0.36
2023-02-26T23:44:26.320Z,-0.39
2023-02-26T23:46:54.749Z,-0.43
2023-02-26T23:49:22.907Z,-0.47
2023-02-26T23:51:50.988Z,-0.50
2023-02-26T23:54:19.156Z,-0.51
2023-02-26T23:56:47.798Z,-0.51
2023-02-26T23:59:17.996Z,-0.51
